createdAt,value
2022-10-15T00:04:31.278Z,17.77
2022-10-15T00:09:33.585Z,14.20
2022-10-15T00:14:34.619Z,13.50
2022-10-15T00:19:35.475Z,14.70
2022-10-15T00:24:37.640Z,15.45
2022-10-15T00:29:38.496Z,17.67
2022-10-15T00:34:39.313Z,19.23
2022-10-15T00:39:41.460Z,17.70
2022-10-15T00:44:52.318Z,16.02
2022-10-15T00:49:59.798Z,16.27
2022-10-15T00:55:06.363Z,17.80
2022-10-15T01:00:10.135Z,18.10
2022-10-15T01:05:14.181Z,17.92
2022-10-15T01:10:18.549Z,20.02
2022-10-15T01:15:27.319Z,21.25
2022-10-15T01:20:51.149Z,26.27
2022-10-15T01:26:07.101Z,18.00
2022-10-15T01:31:20.445Z,20.65
2022-10-15T01:36:32.887Z,21.73
2022-10-15T01:41:43.976Z,22.20
2022-10-15T01:46:49.204Z,19.80
2022-10-15T01:51:58.323Z,20.08
2022-10-15T01:57:00.861Z,19.00
2022-10-15T02:02:03.585Z,25.65
2022-10-15T02:07:09.178Z,22.15
2022-10-15T02:12:21.961Z,20.25
2022-10-15T02:17:33.101Z,21.13
2022-10-15T02:22:38.636Z,19.33
2022-10-15T02:27:41.971Z,21.42
2022-10-15T02:32:48.531Z,23.88
2022-10-15T02:37:52.659Z,20.67
2022-10-15T02:42:53.953Z,23.10
2022-10-15T02:47:56.124Z,21.67
2022-10-15T02:52:58.533Z,20.35
2022-10-15T02:57:59.960Z,21.15
2022-10-15T03:03:02.312Z,21.40
2022-10-15T03:08:03.557Z,18.90
2022-10-15T03:13:06.149Z,19.33
2022-10-15T03:18:14.883Z,20.05
2022-10-15T03:23:15.767Z,21.35
2022-10-15T03:28:19.013Z,23.85
2022-10-15T03:33:23.194Z,23.50
2022-10-15T03:38:26.517Z,23.33
2022-10-15T03:43:28.481Z,22.15
2022-10-15T03:48:35.563Z,20.83
2022-10-15T03:53:36.409Z,24.13
2022-10-15T03:58:37.456Z,19.00
2022-10-15T04:03:42.687Z,19.35
2022-10-15T04:08:43.783Z,22.80
2022-10-15T04:13:59.435Z,18.05
2022-10-15T04:19:01.625Z,19.10
2022-10-15T04:24:02.539Z,22.75
2022-10-15T04:29:09.286Z,19.80
2022-10-15T04:34:11.820Z,20.27
2022-10-15T04:39:14.638Z,21.77
2022-10-15T04:44:17.507Z,24.65
2022-10-15T04:49:26.228Z,15.95
2022-10-15T04:59:36.790Z,19.73
2022-10-15T05:04:57.289Z,19.30
2022-10-15T05:09:58.446Z,21.50
2022-10-15T05:14:59.544Z,25.17
2022-10-15T05:20:04.084Z,26.33
2022-10-15T05:25:05.317Z,18.92
2022-10-15T05:30:12.802Z,20.60
2022-10-15T05:35:25.914Z,23.30
2022-10-15T05:40:29.228Z,24.45
2022-10-15T05:45:50.641Z,17.90
2022-10-15T05:51:03.954Z,20.05
2022-10-15T05:56:06.277Z,17.67
2022-10-15T06:01:09.599Z,17.70
2022-10-15T06:06:18.736Z,16.67
2022-10-15T06:11:20.128Z,17.33
2022-10-15T06:16:23.757Z,19.13
2022-10-15T06:21:27.234Z,15.77
2022-10-15T06:26:28.090Z,20.15
2022-10-15T06:31:28.915Z,17.17
2022-10-15T06:36:31.063Z,13.88
2022-10-15T06:41:31.849Z,14.95
2022-10-15T06:46:32.630Z,16.25
2022-10-15T06:51:34.787Z,14.93
2022-10-15T06:56:35.572Z,14.40
2022-10-15T07:01:38.588Z,13.80
2022-10-15T07:06:44.443Z,14.60
2022-10-15T07:11:45.245Z,11.77
2022-10-15T07:16:46.063Z,12.48
2022-10-15T07:21:48.290Z,11.30
2022-10-15T07:26:49.438Z,8.90
2022-10-15T07:31:50.335Z,8.80
2022-10-15T07:36:53.850Z,9.43
2022-10-15T07:41:54.682Z,8.60
2022-10-15T07:46:55.487Z,8.75
2022-10-15T07:51:57.667Z,6.63
2022-10-15T07:56:58.780Z,8.70
2022-10-15T08:01:59.933Z,6.38
2022-10-15T08:07:02.186Z,7.03
2022-10-15T08:12:03.614Z,4.85
2022-10-15T08:17:05.057Z,4.97
2022-10-15T08:22:07.234Z,5.15
2022-10-15T08:27:08.074Z,5.53
2022-10-15T08:32:08.840Z,4.60
2022-10-15T08:37:11.200Z,4.68
2022-10-15T08:42:19.227Z,3.92
2022-10-15T08:47:30.005Z,3.92
2022-10-15T08:52:42.846Z,4.22
2022-10-15T08:57:48.676Z,4.88
2022-10-15T09:02:57.573Z,3.58
2022-10-15T09:08:07.112Z,3.30
2022-10-15T09:13:16.494Z,3.45
2022-10-15T09:18:22.777Z,3.72
2022-10-15T09:23:27.855Z,2.97
2022-10-15T09:28:37.282Z,4.28
2022-10-15T09:33:44.145Z,3.05
2022-10-15T09:38:58.877Z,2.10
2022-10-15T09:44:04.555Z,4.45
2022-10-15T09:49:19.173Z,2.55
2022-10-15T09:54:33.459Z,2.97
2022-10-15T09:59:34.314Z,2.33
2022-10-15T10:04:38.519Z,2.85
2022-10-15T10:09:51.020Z,2.80
2022-10-15T10:14:56.993Z,3.25
2022-10-15T10:20:17.284Z,3.50
2022-10-15T10:25:32.515Z,3.95
2022-10-15T10:30:38.501Z,3.10
2022-10-15T10:35:46.956Z,4.70
2022-10-15T10:40:53.531Z,3.85
2022-10-15T10:45:59.664Z,2.88
2022-10-15T10:51:10.515Z,3.13
2022-10-15T10:56:15.842Z,2.42
2022-10-15T11:01:17.130Z,4.55
2022-10-15T11:06:45.610Z,6.15
2022-10-15T11:12:02.594Z,3.45
2022-10-15T11:17:16.704Z,5.05
2022-10-15T11:22:39.671Z,3.00
2022-10-15T11:27:57.930Z,5.03
2022-10-15T11:33:08.909Z,6.82
2022-10-15T11:38:20.469Z,2.30
2022-10-15T11:43:39.741Z,3.92
2022-10-15T11:48:52.327Z,4.10
2022-10-15T11:54:14.591Z,5.80
2022-10-15T11:59:34.023Z,2.72
2022-10-15T12:04:41.757Z,4.32
2022-10-15T12:09:45.542Z,2.08
2022-10-15T12:14:54.529Z,2.10
2022-10-15T12:20:02.950Z,1.50
2022-10-15T12:25:03.914Z,1.98
2022-10-15T12:30:34.445Z,1.52
2022-10-15T12:35:37.530Z,6.05
2022-10-15T12:40:41.043Z,1.83
2022-10-15T12:45:52.568Z,3.38
2022-10-15T12:51:40.561Z,3.00
2022-10-15T12:56:42.784Z,3.13
2022-10-15T13:01:53.303Z,2.88
2022-10-15T13:06:54.204Z,3.92
2022-10-15T13:11:58.126Z,1.38
2022-10-15T13:16:59.762Z,4.78
2022-10-15T13:22:02.600Z,2.92
2022-10-15T13:27:15.865Z,2.67
2022-10-15T13:32:16.684Z,1.23
2022-10-15T13:37:22.158Z,2.70
2022-10-15T13:42:26.381Z,3.03
2022-10-15T13:47:30.749Z,1.90
2022-10-15T13:52:31.600Z,0.95
2022-10-15T13:57:33.769Z,0.60
2022-10-15T14:02:34.681Z,1.05
2022-10-15T14:07:35.581Z,4.00
2022-10-15T14:12:38.981Z,1.08
2022-10-15T14:17:40.147Z,1.90
2022-10-15T14:22:41.046Z,1.90
2022-10-15T14:27:46.764Z,3.13
2022-10-15T14:32:51.695Z,2.72
2022-10-15T14:38:02.491Z,6.03
2022-10-15T14:43:07.155Z,2.78
2022-10-15T14:48:12.047Z,2.70
2022-10-15T14:53:20.130Z,4.63
2022-10-15T14:58:24.764Z,4.45
2022-10-15T15:03:29.472Z,4.13
2022-10-15T15:08:30.366Z,5.75
2022-10-15T15:13:33.911Z,5.97
2022-10-15T15:18:35.834Z,5.57
2022-10-15T15:23:37.068Z,5.57
2022-10-15T15:28:39.329Z,3.72
2022-10-15T15:33:41.280Z,5.65
2022-10-15T15:38:42.187Z,5.18
2022-10-15T15:43:45.670Z,5.40
2022-10-15T15:48:46.461Z,8.68
2022-10-15T15:53:47.354Z,4.50
2022-10-15T15:58:50.322Z,5.55
2022-10-15T16:03:51.166Z,7.20
2022-10-15T16:08:53.251Z,8.07
2022-10-15T16:13:55.424Z,9.07
2022-10-15T16:18:56.209Z,13.68
2022-10-15T16:23:57.061Z,8.38
2022-10-15T16:28:59.222Z,9.02
2022-10-15T16:34:00.115Z,8.43
2022-10-15T16:39:01.105Z,7.55
2022-10-15T16:44:03.661Z,12.98
2022-10-15T16:49:04.771Z,12.18
2022-10-15T16:54:05.880Z,8.68
2022-10-15T16:59:08.157Z,12.63
2022-10-15T17:04:09.040Z,7.57
2022-10-15T17:09:09.876Z,11.25
2022-10-15T17:14:14.330Z,10.18
2022-10-15T17:19:17.191Z,10.80
2022-10-15T17:24:19.123Z,11.00
2022-10-15T17:29:23.054Z,11.93
2022-10-15T17:34:24.021Z,11.45
2022-10-15T17:39:25.476Z,13.95
2022-10-15T17:44:27.775Z,13.38
2022-10-15T17:49:28.809Z,14.90
2022-10-15T17:54:30.685Z,14.63
2022-10-15T17:59:33.109Z,16.42
2022-10-15T18:04:34.064Z,16.23
2022-10-15T18:09:35.387Z,21.05
2022-10-15T18:14:38.287Z,20.67
2022-10-15T18:19:39.114Z,18.90
2022-10-15T18:24:41.120Z,18.98
2022-10-15T18:29:44.258Z,20.92
2022-10-15T18:34:45.586Z,18.75
2022-10-15T18:39:46.377Z,19.20
2022-10-15T18:44:51.437Z,19.48
2022-10-15T18:49:53.719Z,19.77
2022-10-15T18:54:54.504Z,17.73
2022-10-15T18:59:56.667Z,17.58
2022-10-15T19:04:57.449Z,16.70
2022-10-15T19:09:58.460Z,17.30
2022-10-15T19:15:01.882Z,20.17
2022-10-15T19:20:02.746Z,16.58
2022-10-15T19:25:03.525Z,17.15
2022-10-15T19:30:08.191Z,19.73
2022-10-15T19:35:09.954Z,17.92
2022-10-15T19:40:11.098Z,16.58
2022-10-15T19:50:19.243Z,15.05
2022-10-15T19:55:21.589Z,20.15
2022-10-15T20:00:23.807Z,18.60
2022-10-15T20:05:24.692Z,23.02
2022-10-15T20:10:26.427Z,20.63
2022-10-15T20:15:29.176Z,25.63
2022-10-15T20:20:30.293Z,22.15
2022-10-15T20:25:31.518Z,24.35
2022-10-15T20:30:33.815Z,24.73
2022-10-15T20:35:35.217Z,23.50
2022-10-15T20:40:39.872Z,23.45
2022-10-15T20:45:45.575Z,35.15
2022-10-15T20:50:47.781Z,22.65
2022-10-15T20:55:48.669Z,29.85
2022-10-15T21:00:50.899Z,22.15
2022-10-15T21:05:51.873Z,25.00
2022-10-15T21:10:52.858Z,24.42
2022-10-15T21:16:00.332Z,22.73
2022-10-15T21:21:06.198Z,22.52
2022-10-15T21:26:08.379Z,22.77
2022-10-15T21:31:12.957Z,23.88
2022-10-15T21:36:15.596Z,30.40
2022-10-15T21:41:18.901Z,24.15
2022-10-15T21:46:21.699Z,24.45
2022-10-15T21:51:25.297Z,25.55
2022-10-15T21:56:26.508Z,27.52
2022-10-15T22:01:31.513Z,21.63
2022-10-15T22:06:33.004Z,21.40
2022-10-15T22:11:35.278Z,19.13
2022-10-15T22:16:38.927Z,21.52
2022-10-15T22:21:39.977Z,21.02
2022-10-15T22:26:42.804Z,21.08
2022-10-15T22:31:45.083Z,19.17
2022-10-15T22:36:46.021Z,17.83
2022-10-15T22:41:48.661Z,21.38
2022-10-15T22:46:51.265Z,22.60
2022-10-15T22:51:52.533Z,22.20
2022-10-15T22:56:53.414Z,23.08
2022-10-15T23:01:55.554Z,21.42
2022-10-15T23:06:56.330Z,21.15
2022-10-15T23:12:28.179Z,21.92
2022-10-15T23:17:32.737Z,25.60
2022-10-15T23:22:33.605Z,21.90
2022-10-15T23:27:34.435Z,23.45
2022-10-15T23:32:36.581Z,20.73
2022-10-15T23:37:40.974Z,23.65
2022-10-15T23:42:41.770Z,18.08
2022-10-15T23:47:43.886Z,27.83
2022-10-15T23:52:44.669Z,23.05
2022-10-15T23:57:50.727Z,24.77
